Weather reports worldwide

Advertisment
Trento, Italy (16023): temperature & dewpoint: 26.06.2020 08:00:00 - 02.07.2020 08:00:00 (CEST)Trento, Italy (16023): wind speed: 26.06.2020 08:00:00 - 02.07.2020 08:00:00 (CEST)Trento, Italy (16023): wind direction: 26.06.2020 08:00:00 - 02.07.2020 08:00:00 (CEST)Trento, Italy (16023): reduced air pressure: 26.06.2020 08:00:00 - 02.07.2020 08:00:00 (CEST)Trento, Italy (16023): precipitation: 26.06.2020 08:00:00 - 02.07.2020 08:00:00 (CEST)
Date & Time tt [°C] td [°C] ff [km/h] ff [kn] dd ppp [hPa] rr [mm]
02.07.2020 08:00:00 - - - - - - -
02.07.2020 07:00:00 - - - - - - -
02.07.2020 06:00:00 19,2 17,3 0 0 N 1013,9 -
02.07.2020 05:00:00 19,3 16,8 5 3 SW 1013,4 -
02.07.2020 04:00:00 18,4 15,8 4 2 W 1012,8 -
02.07.2020 03:00:00 19,2 16,2 4 2 WNW 1013,1 -
02.07.2020 02:00:00 19,8 15,8 8 4 NNW 1013,6 0,0
02.07.2020 01:00:00 20,3 15,2 9 5 NNW 1014,0 -
02.07.2020 00:00:00 20,9 14,7 11 6 N 1013,9 -
01.07.2020 23:00:00 22,5 13,7 15 8 NNE 1013,3 -
01.07.2020 22:00:00 22,5 14,3 13 7 NNW 1012,3 -
01.07.2020 21:00:00 23,4 14,3 21 11 N 1011,4 -
01.07.2020 20:00:00 25,4 13,8 31 17 NNE 1011,0 0,0
01.07.2020 19:00:00 28,6 18,6 5 3 SE 1008,8 -
01.07.2020 18:00:00 29,4 17,5 16 9 SE 1009,2 -
01.07.2020 17:00:00 30,7 19,4 4 2 W 1009,8 -
01.07.2020 16:00:00 29,0 18,7 13 7 SSE 1010,4 -
01.07.2020 15:00:00 27,0 20,0 13 7 N 1010,8 -
01.07.2020 14:00:00 25,8 16,3 11 6 SE 1011,7 0,0
01.07.2020 13:00:00 27,2 20,0 5 3 E 1011,1 -
01.07.2020 12:00:00 28,2 18,0 4 2 S 1011,0 -
01.07.2020 11:00:00 28,2 19,6 8 4 SW 1011,4 -
01.07.2020 10:00:00 27,6 19,1 2 1 S 1012,0 -
01.07.2020 09:00:00 25,4 19,2 4 2 NE 1012,4 -
01.07.2020 08:00:00 23,5 18,7 4 2 SSW 1012,4 0,0
01.07.2020 07:00:00 22,9 18,4 4 2 E 1012,4 -
01.07.2020 06:00:00 22,5 17,6 4 2 ESE 1012,1 -
01.07.2020 05:00:00 23,6 18,2 4 2 E 1011,8 -
01.07.2020 04:00:00 23,8 17,5 4 2 E 1011,6 -
01.07.2020 03:00:00 25,1 17,7 4 2 E 1011,5 -
01.07.2020 02:00:00 25,6 17,5 4 2 N 1011,7 0,0
01.07.2020 01:00:00 26,7 17,1 2 1 SSE 1011,6 -
01.07.2020 00:00:00 27,4 17,2 9 5 S 1011,3 -
30.06.2020 23:00:00 27,9 17,1 5 3 SE 1011,0 -
30.06.2020 22:00:00 28,6 17,1 13 7 S 1010,5 -
30.06.2020 21:00:00 29,1 16,9 21 11 SSE 1009,7 -
30.06.2020 20:00:00 29,6 16,4 11 6 S 1009,4 0,0
30.06.2020 19:00:00 29,9 16,3 16 9 SSW 1009,3 -
30.06.2020 18:00:00 30,7 15,9 22 12 S 1009,3 -
30.06.2020 17:00:00 31,7 17,9 22 12 SSW 1009,5 -
30.06.2020 16:00:00 32,5 17,5 26 14 SSW 1009,4 -
30.06.2020 15:00:00 32,1 17,9 24 13 S 1009,5 -
30.06.2020 14:00:00 30,4 18,1 16 9 S 1010,1 0,0
30.06.2020 13:00:00 29,0 17,2 5 3 SSW 1010,8 -
30.06.2020 12:00:00 28,0 15,9 8 4 SSW 1011,4 -
30.06.2020 11:00:00 26,3 15,9 5 3 NNE 1012,0 -
30.06.2020 10:00:00 24,5 16,2 5 3 NNE 1012,6 -
30.06.2020 09:00:00 23,7 14,9 9 5 NW 1012,8 -
30.06.2020 08:00:00 22,7 15,9 8 4 NNE 1012,7 -
30.06.2020 07:00:00 21,5 16,8 4 2 E 1012,5 -
30.06.2020 06:00:00 21,1 17,0 2 1 ENE 1012,0 -
30.06.2020 05:00:00 21,5 17,6 0 0 N 1011,6 -
30.06.2020 04:00:00 21,4 18,1 4 2 ENE 1011,6 -
30.06.2020 03:00:00 21,9 19,0 5 3 N 1011,4 -
30.06.2020 02:00:00 22,4 19,5 2 1 NW 1011,4 -
30.06.2020 01:00:00 22,5 19,6 11 6 WNW 1011,1 -
30.06.2020 00:00:00 22,4 19,9 4 2 ENE 1010,9 -
29.06.2020 23:00:00 21,9 19,4 8 4 NW 1010,9 -
29.06.2020 22:00:00 22,0 19,3 4 2 ENE 1010,6 -
29.06.2020 21:00:00 22,4 18,5 4 2 E 1009,9 -
29.06.2020 20:00:00 25,0 16,9 15 8 NNW 1009,2 0,0
29.06.2020 19:00:00 26,1 16,0 4 2 ESE 1008,9 -
29.06.2020 18:00:00 29,6 14,9 13 7 NNW 1007,9 -
29.06.2020 17:00:00 29,9 15,9 11 6 NNW 1007,7 -
29.06.2020 16:00:00 28,4 16,3 16 9 NW 1008,2 -
29.06.2020 15:00:00 27,6 15,2 24 13 NNE 1008,7 -
29.06.2020 14:00:00 28,4 16,6 37 20 N 1008,6 0,0
29.06.2020 13:00:00 30,4 16,4 8 4 SW 1007,9 -
29.06.2020 12:00:00 30,0 17,4 21 11 S 1007,9 -
29.06.2020 11:00:00 28,1 17,6 4 2 S 1008,7 -
29.06.2020 10:00:00 26,0 18,1 111 60 NNE 1009,8 -
29.06.2020 09:00:00 23,0 18,3 5 3 SSW 1010,6 -
29.06.2020 08:00:00 21,1 17,2 2 1 SSW 1011,1 0,0
29.06.2020 07:00:00 19,8 16,0 0 0 N 1011,4 -
29.06.2020 06:00:00 19,0 15,0 0 0 N 1011,5 -
29.06.2020 05:00:00 19,1 14,9 0 0 N 1011,7 -
29.06.2020 04:00:00 19,8 15,0 4 2 ENE 1012,0 -
29.06.2020 03:00:00 20,5 15,0 0 0 N 1012,4 -
29.06.2020 02:00:00 21,4 14,7 0 0 N 1012,8 0,0
29.06.2020 01:00:00 22,5 14,3 0 0 N 1013,0 -
29.06.2020 00:00:00 25,1 14,5 9 5 SW 1012,7 -
28.06.2020 23:00:00 27,0 14,7 16 9 S 1012,5 -
28.06.2020 22:00:00 27,3 14,3 11 6 S 1012,5 -
28.06.2020 21:00:00 29,2 14,2 16 9 S 1012,0 -
28.06.2020 20:00:00 30,4 13,6 21 11 SE 1011,6 0,0
28.06.2020 19:00:00 32,2 13,4 16 9 S 1011,4 -
28.06.2020 18:00:00 33,6 13,1 13 7 SSW 1011,4 -
28.06.2020 17:00:00 33,7 14,7 26 14 SSW 1011,7 -
28.06.2020 16:00:00 34,5 15,9 26 14 SSW 1011,9 -
28.06.2020 15:00:00 33,4 16,3 22 12 S 1012,4 -
28.06.2020 14:00:00 31,8 16,5 24 13 SSW 1013,2 0,0
28.06.2020 13:00:00 29,7 16,8 8 4 SW 1014,6 -
28.06.2020 12:00:00 28,1 15,7 5 3 SE 1015,3 -
28.06.2020 11:00:00 26,9 15,5 4 2 E 1016,0 -
28.06.2020 10:00:00 24,9 15,7 5 3 NE 1016,9 -
28.06.2020 09:00:00 23,2 16,2 9 5 ENE 1017,3 -
28.06.2020 08:00:00 21,3 17,6 4 2 E 1017,5 0,0
28.06.2020 07:00:00 19,0 15,2 4 2 NNW 1017,5 -
28.06.2020 06:00:00 18,3 14,3 0 0 N 1017,3 -
28.06.2020 05:00:00 18,6 14,6 0 0 N 1016,8 -
28.06.2020 04:00:00 18,6 14,0 4 2 SSW 1016,8 -
28.06.2020 03:00:00 19,4 13,9 4 2 E 1016,5 -
28.06.2020 02:00:00 19,6 13,0 5 3 NE 1016,7 0,0
28.06.2020 01:00:00 20,9 13,5 4 2 E 1016,4 -
28.06.2020 00:00:00 22,9 13,3 8 4 E 1015,8 -
27.06.2020 23:00:00 25,2 13,3 2 1 SSE 1015,0 -
27.06.2020 22:00:00 26,8 14,1 15 8 S 1014,4 -
27.06.2020 21:00:00 28,1 14,6 15 8 S 1013,7 -
27.06.2020 20:00:00 29,2 14,9 13 7 SSE 1013,2 0,0
27.06.2020 19:00:00 31,1 16,3 16 9 SSW 1012,6 -
27.06.2020 18:00:00 31,5 17,0 24 13 S 1012,4 -
27.06.2020 17:00:00 32,5 16,3 28 15 S 1012,5 -
27.06.2020 16:00:00 32,0 17,1 26 14 S 1012,7 -
27.06.2020 15:00:00 31,6 15,5 22 12 S 1013,5 -
27.06.2020 14:00:00 30,3 17,0 9 5 SW 1014,2 0,0
27.06.2020 13:00:00 29,4 17,2 4 2 NNW 1015,1 -
27.06.2020 12:00:00 28,8 17,6 4 2 W 1015,6 -
27.06.2020 11:00:00 26,3 17,3 2 1 WSW 1016,0 -
27.06.2020 10:00:00 24,9 17,3 9 5 NW 1016,4 -
27.06.2020 09:00:00 23,4 17,5 5 3 E 1016,9 -
27.06.2020 08:00:00 21,8 17,1 9 5 NNE 1017,3 0,0
27.06.2020 07:00:00 21,4 17,3 13 7 N 1017,1 -
27.06.2020 06:00:00 20,1 16,7 0 0 N 1017,1 -
27.06.2020 05:00:00 19,7 16,5 2 1 WSW 1017,1 -
27.06.2020 04:00:00 20,0 16,4 2 1 W 1017,0 -
27.06.2020 03:00:00 19,6 16,0 4 2 E 1016,6 -
27.06.2020 02:00:00 20,2 16,4 5 3 N 1016,6 0,0
27.06.2020 01:00:00 19,8 16,0 2 1 N 1016,6 -
27.06.2020 00:00:00 20,0 15,1 2 1 E 1016,7 -
26.06.2020 23:00:00 21,1 16,2 0 0 N 1016,5 -
26.06.2020 22:00:00 22,0 16,2 8 4 E 1016,0 -
26.06.2020 21:00:00 23,9 17,1 8 4 SSE 1015,4 -
26.06.2020 20:00:00 25,5 16,8 4 2 NNE 1015,1 0,0
26.06.2020 19:00:00 27,5 16,4 18 10 NE 1014,9 -
26.06.2020 18:00:00 29,5 15,2 5 3 WNW 1014,2 -
26.06.2020 17:00:00 29,7 16,8 16 9 SSW 1014,3 -
26.06.2020 16:00:00 30,2 15,8 24 13 S 1014,7 -
26.06.2020 15:00:00 29,3 16,4 16 9 SW 1015,3 -
26.06.2020 14:00:00 28,2 16,4 5 3 NE 1015,8 0,0
26.06.2020 13:00:00 27,5 16,7 2 1 ESE 1016,4 -
26.06.2020 12:00:00 26,1 15,4 5 3 NNW 1017,0 -
26.06.2020 11:00:00 25,2 16,5 2 1 NW 1016,9 -
26.06.2020 10:00:00 23,1 16,3 2 1 N 1017,7 -
26.06.2020 09:00:00 21,0 16,5 5 3 S 1018,1 -
26.06.2020 08:00:00 20,3 16,1 4 2 SSW 1018,1 0,0

tt = temperature
td = dewpoint
ff = wind speed
dd = wind direction
ppp = reduced air pressure
rr = precipitation

Next stations